Time;durP1;ratioP1;P1;durP2;ratioP2;P2;SDS_P1;SDS_P2;PMS_P1;PMS_P2;Temp;Humidity;BMP_temperature;BMP_pressure;BME280_temperature;BME280_humidity;BME280_pressure;Samples;Min_cycle;Max_cycle;Signal;HPM_P1;HPM_P2
2022/01/27 00:02:57;;;;;;;50.67;21.97;;;5.40;99.90;;;;;;5068557;28;20366;-77
2022/01/27 00:05:27;;;;;;;50.13;22.43;;;5.40;99.90;;;;;;5075332;28;20253;-77
2022/01/27 00:08:09;;;;;;;51.87;22.47;;;5.40;99.90;;;;;;5043417;28;20321;-79
2022/01/27 00:13:11;;;;;;;52.40;23.33;;;5.40;99.90;;;;;;5071430;28;20217;-77
2022/01/27 00:15:40;;;;;;;52.23;22.33;;;5.50;99.90;;;;;;5074193;28;20622;-77
2022/01/27 00:18:16;;;;;;;53.27;22.67;;;5.50;99.90;;;;;;5070175;28;20251;-77
2022/01/27 00:20:48;;;;;;;49.27;21.30;;;5.50;99.90;;;;;;5070840;28;20215;-77
2022/01/27 00:23:15;;;;;;;47.20;22.07;;;5.60;99.90;;;;;;5072940;28;20204;-76
2022/01/27 00:25:43;;;;;;;44.27;21.13;;;5.50;99.90;;;;;;5069791;28;20680;-77
2022/01/27 00:28:10;;;;;;;44.70;21.50;;;5.50;99.90;;;;;;5074586;28;20585;-76
2022/01/27 00:30:38;;;;;;;47.93;22.27;;;5.50;99.90;;;;;;5077538;28;20728;-76
2022/01/27 00:33:05;;;;;;;48.33;23.87;;;5.50;99.90;;;;;;5075618;28;20310;-76
2022/01/27 00:35:33;;;;;;;52.13;23.33;;;5.40;99.90;;;;;;5073155;28;20243;-77
2022/01/27 00:38:00;;;;;;;48.70;22.77;;;5.40;99.90;;;;;;5069377;28;20226;-77
2022/01/27 00:40:33;;;;;;;49.57;23.57;;;5.40;99.90;;;;;;5072434;28;20964;-77
2022/01/27 00:43:00;;;;;;;46.37;21.77;;;5.50;99.90;;;;;;5076302;28;20238;-77
2022/01/27 00:45:29;;;;;;;46.87;22.40;;;5.50;99.90;;;;;;5068869;28;20234;-77
2022/01/27 00:48:00;;;;;;;52.80;22.67;;;5.50;99.90;;;;;;5075920;28;20238;-77
2022/01/27 00:50:28;;;;;;;48.07;22.17;;;5.50;99.90;;;;;;5067135;28;20977;-77
2022/01/27 00:52:57;;;;;;;48.33;21.17;;;5.50;99.90;;;;;;5052000;28;20700;-77
2022/01/27 00:55:26;;;;;;;47.10;23.00;;;5.50;99.90;;;;;;5075940;28;20233;-77
2022/01/27 01:00:32;;;;;;;43.77;21.10;;;5.40;99.90;;;;;;5065020;28;20200;-76
2022/01/27 01:03:48;;;;;;;44.57;20.70;;;5.50;99.90;;;;;;5074446;28;20278;-78
2022/01/27 01:35:11;;;;;;;39.80;18.80;;;5.60;99.90;;;;;;5065744;28;20196;-76
2022/01/27 01:37:41;;;;;;;43.00;19.70;;;5.50;99.90;;;;;;5063477;28;20698;-76
2022/01/27 01:40:16;;;;;;;40.17;18.07;;;5.60;99.90;;;;;;5061835;28;20210;-76
2022/01/27 01:42:44;;;;;;;41.33;20.27;;;5.60;99.90;;;;;;5072289;28;20208;-77
2022/01/27 01:45:14;;;;;;;40.40;17.47;;;5.60;99.90;;;;;;5054413;28;20228;-78
2022/01/27 01:47:41;;;;;;;40.47;17.87;;;5.70;99.90;;;;;;5064659;28;20240;-77
2022/01/27 01:50:09;;;;;;;35.37;18.00;;;5.60;99.90;;;;;;5063606;28;20207;-78
2022/01/27 01:52:37;;;;;;;42.53;20.23;;;5.70;99.90;;;;;;5071047;28;20220;-77
2022/01/27 01:55:06;;;;;;;43.33;18.43;;;5.60;99.90;;;;;;5074222;28;20216;-77
2022/01/27 01:57:34;;;;;;;47.57;20.17;;;5.60;99.90;;;;;;5065949;28;20896;-76
2022/01/27 02:00:01;;;;;;;41.40;19.40;;;5.60;99.90;;;;;;5073855;28;20517;-77
2022/01/27 02:02:28;;;;;;;40.53;18.23;;;5.60;99.90;;;;;;5065798;28;20213;-77
2022/01/27 02:04:55;;;;;;;39.53;17.20;;;5.60;99.90;;;;;;5064592;28;20904;-78
2022/01/27 02:07:48;;;;;;;36.77;18.37;;;5.60;99.90;;;;;;5072558;28;20347;-77
2022/01/27 02:10:39;;;;;;;42.53;18.23;;;5.60;99.90;;;;;;5048909;28;20273;-76
2022/01/27 02:18:41;;;;;;;38.77;18.73;;;5.60;99.90;;;;;;5066432;28;20224;-78
2022/01/27 02:21:10;;;;;;;38.33;18.67;;;5.70;99.90;;;;;;5071681;28;20215;-77
2022/01/27 02:23:36;;;;;;;40.70;18.97;;;5.70;99.90;;;;;;5070378;28;20207;-76
2022/01/27 02:26:03;;;;;;;41.57;18.80;;;5.60;99.90;;;;;;5077795;28;20734;-77
2022/01/27 02:28:30;;;;;;;44.53;19.17;;;5.70;99.90;;;;;;5054684;28;20225;-77
2022/01/27 02:30:57;;;;;;;37.23;18.23;;;5.70;99.90;;;;;;5056389;28;20293;-77
2022/01/27 02:33:32;;;;;;;34.47;16.67;;;5.70;99.90;;;;;;5072550;28;20681;-77
2022/01/27 02:35:59;;;;;;;37.60;17.57;;;5.70;99.90;;;;;;5045201;28;20647;-77
2022/01/27 02:38:25;;;;;;;40.03;18.77;;;5.70;99.90;;;;;;5068140;28;20686;-77
2022/01/27 02:41:00;;;;;;;40.73;18.53;;;5.70;99.90;;;;;;5065441;28;20300;-76
2022/01/27 02:43:27;;;;;;;35.03;18.50;;;5.70;99.90;;;;;;5075071;28;20564;-76
2022/01/27 02:46:08;;;;;;;37.73;18.10;;;5.70;99.90;;;;;;5051601;28;20240;-76
2022/01/27 02:48:35;;;;;;;37.00;18.77;;;5.70;99.90;;;;;;5061001;28;20294;-76
2022/01/27 02:51:01;;;;;;;39.27;19.23;;;5.70;99.90;;;;;;5047314;28;20255;-77
2022/01/27 02:53:28;;;;;;;37.17;18.93;;;5.70;99.90;;;;;;5067343;28;20229;-77
2022/01/27 02:55:55;;;;;;;38.20;18.77;;;5.70;99.90;;;;;;5071971;28;20202;-76
2022/01/27 02:58:22;;;;;;;40.07;18.43;;;5.70;99.90;;;;;;5072882;28;20211;-76
2022/01/27 03:00:49;;;;;;;40.73;19.57;;;5.70;99.90;;;;;;5080451;28;20771;-77
2022/01/27 03:03:16;;;;;;;39.87;19.07;;;5.70;99.90;;;;;;5054046;28;20307;-76
2022/01/27 03:05:43;;;;;;;41.67;18.90;;;5.80;99.90;;;;;;5056468;28;20200;-77
2022/01/27 03:08:10;;;;;;;38.73;18.67;;;5.70;99.90;;;;;;5064294;28;20314;-77
2022/01/27 03:10:43;;;;;;;42.40;19.57;;;5.80;99.90;;;;;;5069342;28;20204;-77
2022/01/27 03:13:10;;;;;;;38.63;18.90;;;5.80;99.90;;;;;;5072590;28;20675;-76
2022/01/27 03:15:36;;;;;;;40.80;19.17;;;5.80;99.90;;;;;;5080158;28;20295;-77
2022/01/27 03:18:03;;;;;;;37.10;17.67;;;5.80;99.90;;;;;;5043387;28;20225;-76
2022/01/27 03:20:34;;;;;;;36.37;17.23;;;5.80;99.90;;;;;;5064764;28;20679;-76
2022/01/27 03:23:03;;;;;;;48.13;19.90;;;5.80;99.90;;;;;;5069274;28;20332;-76
2022/01/27 03:25:29;;;;;;;43.43;19.30;;;5.80;99.90;;;;;;5075447;28;20215;-76
2022/01/27 03:27:57;;;;;;;41.90;19.87;;;5.80;99.90;;;;;;5069767;28;20224;-77
2022/01/27 03:30:24;;;;;;;39.77;19.33;;;5.80;99.90;;;;;;5072373;28;20207;-76
2022/01/27 03:32:50;;;;;;;36.80;18.80;;;5.70;99.90;;;;;;5064351;28;20266;-76
2022/01/27 03:35:17;;;;;;;39.90;18.37;;;5.70;99.90;;;;;;5070576;28;20242;-76
2022/01/27 03:37:44;;;;;;;38.73;18.53;;;5.80;99.90;;;;;;5062300;28;20208;-76
2022/01/27 03:40:11;;;;;;;44.63;20.33;;;5.80;99.90;;;;;;5064059;28;20209;-75
2022/01/27 03:42:45;;;;;;;41.70;18.63;;;5.80;99.90;;;;;;5075485;28;20258;-78
2022/01/27 03:45:12;;;;;;;39.27;19.67;;;5.90;99.90;;;;;;5047526;28;20251;-76
2022/01/27 03:47:39;;;;;;;39.30;18.63;;;5.80;99.90;;;;;;5057797;28;20220;-77
2022/01/27 03:50:06;;;;;;;40.17;19.27;;;5.90;99.90;;;;;;5052973;28;20696;-76
2022/01/27 03:52:33;;;;;;;38.03;17.50;;;5.80;99.90;;;;;;5047139;28;20189;-77
2022/01/27 03:55:00;;;;;;;36.27;17.57;;;5.90;99.90;;;;;;5053130;28;20659;-77
2022/01/27 03:57:27;;;;;;;46.47;19.13;;;5.90;99.90;;;;;;5056598;28;20219;-76
2022/01/27 03:59:54;;;;;;;41.57;18.97;;;5.90;99.90;;;;;;5061150;28;20562;-77
2022/01/27 04:02:21;;;;;;;41.33;18.37;;;5.90;99.90;;;;;;5047893;28;20228;-77
2022/01/27 04:04:49;;;;;;;37.23;18.37;;;5.90;99.90;;;;;;5049632;28;20558;-76
2022/01/27 04:07:15;;;;;;;41.83;19.07;;;5.90;99.90;;;;;;5055382;28;20346;-77
2022/01/27 04:09:42;;;;;;;41.97;18.73;;;5.90;99.90;;;;;;5059151;28;20230;-77
2022/01/27 04:12:09;;;;;;;42.03;18.97;;;5.90;99.90;;;;;;5054704;28;20216;-79
2022/01/27 04:14:36;;;;;;;42.07;19.27;;;5.90;99.90;;;;;;5052569;28;20206;-77
2022/01/27 04:17:04;;;;;;;42.63;18.57;;;5.90;99.90;;;;;;5042137;28;20630;-76
2022/01/27 04:19:31;;;;;;;40.97;19.47;;;5.90;99.90;;;;;;5053816;28;20618;-77
2022/01/27 04:21:57;;;;;;;37.57;18.93;;;5.90;99.90;;;;;;5050764;28;20204;-77
2022/01/27 04:24:24;;;;;;;38.87;18.90;;;5.90;99.90;;;;;;5059467;28;20217;-77
2022/01/27 04:26:59;;;;;;;47.57;19.43;;;5.90;99.90;;;;;;5047094;28;20284;-77
2022/01/27 04:29:27;;;;;;;38.43;18.53;;;5.90;99.90;;;;;;5057795;28;20259;-77
2022/01/27 04:31:54;;;;;;;36.63;18.30;;;6.00;99.90;;;;;;5040934;28;20217;-77
2022/01/27 04:34:22;;;;;;;34.43;17.33;;;6.00;99.90;;;;;;5043579;28;20273;-77
2022/01/27 04:36:50;;;;;;;37.83;18.27;;;6.00;99.90;;;;;;5052667;28;20245;-77
2022/01/27 04:41:59;;;;;;;40.23;19.23;;;6.00;99.90;;;;;;5056433;28;20201;-77
2022/01/27 04:44:37;;;;;;;31.70;16.63;;;6.00;99.90;;;;;;5053157;28;20364;-78
2022/01/27 04:47:10;;;;;;;38.60;18.03;;;6.00;99.90;;;;;;5064249;28;20225;-78
2022/01/27 04:49:37;;;;;;;38.30;18.10;;;6.00;99.90;;;;;;5054098;28;20221;-79
2022/01/27 04:52:05;;;;;;;42.97;20.70;;;6.10;99.90;;;;;;5068656;28;20573;-77
2022/01/27 04:54:47;;;;;;;39.13;18.47;;;6.00;99.90;;;;;;5065103;28;20236;-77
2022/01/27 04:57:14;;;;;;;38.93;19.33;;;6.00;99.90;;;;;;5051052;28;20208;-77
2022/01/27 04:59:43;;;;;;;37.87;18.00;;;6.00;99.90;;;;;;5053511;28;20199;-78
2022/01/27 05:02:19;;;;;;;38.03;17.30;;;6.10;99.90;;;;;;5051991;28;20226;-77
2022/01/27 05:04:50;;;;;;;37.60;18.13;;;6.10;99.90;;;;;;5068040;28;20231;-77
2022/01/27 05:07:32;;;;;;;36.87;16.03;;;6.20;99.90;;;;;;5067640;28;20271;-77
2022/01/27 05:10:08;;;;;;;39.47;17.73;;;6.10;99.90;;;;;;5065733;28;20223;-78
2022/01/27 05:12:48;;;;;;;40.80;18.33;;;6.20;99.90;;;;;;5063426;28;20685;-78
2022/01/27 05:15:17;;;;;;;42.63;17.87;;;6.20;99.90;;;;;;5077663;28;20205;-76
2022/01/27 05:17:45;;;;;;;39.47;17.73;;;6.20;99.90;;;;;;5067881;28;20222;-77
2022/01/27 05:20:12;;;;;;;42.03;17.63;;;6.20;99.90;;;;;;5071446;28;20225;-76
2022/01/27 05:22:38;;;;;;;42.20;18.77;;;6.20;99.90;;;;;;5052388;28;20288;-77
2022/01/27 05:25:05;;;;;;;42.83;18.03;;;6.30;99.90;;;;;;5073230;28;20335;-77
2022/01/27 05:27:32;;;;;;;47.53;18.57;;;6.30;99.90;;;;;;5068776;28;20197;-77
2022/01/27 05:30:02;;;;;;;40.40;18.10;;;6.30;99.90;;;;;;5070704;28;20634;-77
2022/01/27 05:32:29;;;;;;;41.17;18.73;;;6.30;99.90;;;;;;5065919;28;20340;-77
2022/01/27 05:34:56;;;;;;;37.50;18.57;;;6.30;99.90;;;;;;5072236;28;20226;-78
2022/01/27 05:37:23;;;;;;;44.30;18.37;;;6.30;99.90;;;;;;5074409;28;20193;-77
2022/01/27 05:39:50;;;;;;;45.93;18.97;;;6.20;99.90;;;;;;5061993;28;20855;-77
2022/01/27 05:42:17;;;;;;;38.30;17.67;;;6.20;99.90;;;;;;5068147;28;20927;-77
2022/01/27 05:44:44;;;;;;;37.37;17.90;;;6.20;99.90;;;;;;5071766;28;20286;-77
2022/01/27 05:47:10;;;;;;;49.03;19.93;;;6.10;99.90;;;;;;5063899;28;20856;-75
2022/01/27 05:49:37;;;;;;;43.03;19.13;;;6.10;99.90;;;;;;5066879;28;20663;-78
2022/01/27 05:52:04;;;;;;;44.97;19.00;;;6.10;99.90;;;;;;5069640;28;20231;-76
2022/01/27 05:54:34;;;;;;;46.23;18.87;;;6.10;99.90;;;;;;5064847;28;20285;-76
2022/01/27 05:57:01;;;;;;;41.33;19.30;;;6.10;99.90;;;;;;5071550;28;20296;-77
2022/01/27 05:59:28;;;;;;;35.60;18.67;;;6.10;99.90;;;;;;5069787;28;20302;-77
2022/01/27 06:01:54;;;;;;;42.77;19.03;;;6.10;99.90;;;;;;5067952;28;20216;-77
2022/01/27 06:04:21;;;;;;;47.33;19.87;;;6.10;99.90;;;;;;5049640;28;20581;-77
2022/01/27 06:06:49;;;;;;;43.63;19.30;;;6.20;99.90;;;;;;5064998;28;20540;-77
2022/01/27 06:09:17;;;;;;;43.70;18.53;;;6.20;99.90;;;;;;5068272;28;20229;-78
2022/01/27 06:11:44;;;;;;;42.87;17.93;;;6.20;99.90;;;;;;5073842;28;20205;-78
2022/01/27 06:14:14;;;;;;;41.80;18.50;;;6.20;99.90;;;;;;5047035;28;20559;-77
2022/01/27 06:16:41;;;;;;;46.13;18.43;;;6.20;99.90;;;;;;5070572;28;20221;-77
2022/01/27 06:19:08;;;;;;;44.17;18.30;;;6.20;99.90;;;;;;5046033;28;21881;-77
2022/01/27 06:21:35;;;;;;;38.87;17.10;;;6.30;99.90;;;;;;5073580;28;20519;-76
2022/01/27 06:24:03;;;;;;;43.43;18.87;;;6.30;99.90;;;;;;5066728;28;20223;-77
2022/01/27 06:26:30;;;;;;;40.37;18.80;;;6.30;99.90;;;;;;5072985;28;20637;-78
2022/01/27 06:28:57;;;;;;;39.27;18.00;;;6.30;99.90;;;;;;5048309;28;20232;-78
2022/01/27 06:31:24;;;;;;;43.30;18.50;;;6.40;99.90;;;;;;5053278;28;20199;-77
2022/01/27 06:33:52;;;;;;;45.30;18.80;;;6.40;99.90;;;;;;5054407;28;20239;-77
2022/01/27 06:36:20;;;;;;;41.93;18.57;;;6.40;99.90;;;;;;5074267;28;20672;-77
2022/01/27 06:38:48;;;;;;;40.50;17.57;;;6.40;99.90;;;;;;5051387;28;20693;-77
2022/01/27 06:41:14;;;;;;;39.73;17.87;;;6.40;99.90;;;;;;5071750;28;20209;-78
2022/01/27 06:43:41;;;;;;;38.50;18.40;;;6.40;99.90;;;;;;5063758;28;20213;-77
2022/01/27 06:46:09;;;;;;;40.60;16.57;;;6.40;99.90;;;;;;5064611;28;20204;-77
2022/01/27 06:48:36;;;;;;;41.40;17.77;;;6.50;99.90;;;;;;5066816;28;20680;-77
2022/01/27 06:51:17;;;;;;;39.23;18.57;;;6.40;99.90;;;;;;5067652;27;1220997;-77
2022/01/27 06:53:44;;;;;;;43.53;16.97;;;6.50;99.90;;;;;;5100433;28;20223;-76
2022/01/27 06:56:10;;;;;;;38.70;18.20;;;6.50;99.90;;;;;;5095993;28;20207;-77
2022/01/27 06:58:37;;;;;;;43.07;17.37;;;6.50;99.90;;;;;;5095104;28;20300;-78
2022/01/27 07:01:04;;;;;;;40.80;19.03;;;6.50;99.90;;;;;;5097955;28;20208;-77
2022/01/27 07:03:34;;;;;;;40.37;18.07;;;6.50;99.90;;;;;;5096871;28;20312;-76
2022/01/27 07:06:01;;;;;;;45.43;18.20;;;6.40;99.90;;;;;;5098381;28;20207;-76
2022/01/27 07:08:27;;;;;;;38.90;17.33;;;6.40;99.90;;;;;;5096760;28;20208;-77
2022/01/27 07:10:54;;;;;;;44.93;18.93;;;6.40;99.90;;;;;;5103201;28;20331;-77
2022/01/27 07:13:21;;;;;;;48.40;19.30;;;6.40;99.90;;;;;;5100370;28;20602;-76
2022/01/27 07:15:48;;;;;;;50.33;20.47;;;6.40;99.90;;;;;;5100987;28;20208;-77
2022/01/27 07:18:14;;;;;;;53.43;19.87;;;6.30;99.90;;;;;;5099123;28;20226;-76
2022/01/27 07:20:42;;;;;;;42.50;19.27;;;6.30;99.90;;;;;;5095308;28;20269;-76
2022/01/27 07:23:09;;;;;;;42.77;18.70;;;6.30;99.90;;;;;;5099310;28;20739;-77
2022/01/27 07:25:36;;;;;;;50.27;19.13;;;6.30;99.90;;;;;;5099786;28;20271;-75
2022/01/27 07:28:03;;;;;;;40.50;18.20;;;6.30;99.90;;;;;;5103601;28;20210;-77
2022/01/27 07:30:30;;;;;;;41.40;19.07;;;6.30;99.90;;;;;;5092559;28;20261;-77
2022/01/27 07:32:57;;;;;;;36.70;18.33;;;6.30;99.90;;;;;;5097469;28;20223;-77
2022/01/27 07:35:24;;;;;;;42.77;17.53;;;6.30;99.90;;;;;;5100842;28;20205;-78
2022/01/27 07:37:51;;;;;;;43.43;18.43;;;6.30;99.90;;;;;;5099214;28;20306;-78
2022/01/27 07:40:19;;;;;;;44.20;18.37;;;6.30;99.90;;;;;;5103041;28;20219;-77
2022/01/27 07:43:08;;;;;;;44.63;18.67;;;6.30;99.90;;;;;;5101351;28;20300;-77
2022/01/27 07:45:35;;;;;;;47.07;16.80;;;6.40;99.90;;;;;;5092305;28;20196;-77
2022/01/27 07:48:02;;;;;;;42.00;18.13;;;6.40;99.90;;;;;;5094350;28;20212;-76
2022/01/27 07:50:30;;;;;;;42.03;18.33;;;6.40;99.90;;;;;;5099393;28;20359;-76
2022/01/27 07:52:57;;;;;;;39.43;16.73;;;6.40;99.90;;;;;;5078891;28;20203;-76
2022/01/27 07:55:24;;;;;;;43.87;17.50;;;6.40;99.90;;;;;;5096355;28;20314;-76
2022/01/27 07:57:52;;;;;;;41.53;17.93;;;6.40;99.90;;;;;;5097135;28;20648;-76
2022/01/27 08:00:19;;;;;;;42.43;18.07;;;6.40;99.90;;;;;;5096259;28;20697;-76
2022/01/27 08:02:46;;;;;;;37.43;16.50;;;6.50;99.90;;;;;;5082835;28;20595;-76
2022/01/27 08:05:13;;;;;;;35.80;17.23;;;6.50;99.90;;;;;;5086087;28;20215;-75
2022/01/27 08:07:39;;;;;;;36.23;16.73;;;6.50;99.90;;;;;;5082866;28;20221;-77
2022/01/27 08:10:06;;;;;;;38.27;16.90;;;6.50;99.90;;;;;;5064549;28;20254;-76
2022/01/27 08:12:39;;;;;;;35.60;17.17;;;6.50;99.90;;;;;;5089226;28;20205;-75
2022/01/27 08:15:06;;;;;;;39.20;17.87;;;6.50;99.90;;;;;;5081751;28;20216;-76
2022/01/27 08:17:33;;;;;;;36.80;16.60;;;6.60;99.90;;;;;;5068630;28;20212;-76
2022/01/27 08:20:00;;;;;;;41.23;17.83;;;6.60;99.90;;;;;;5084263;28;20209;-77
2022/01/27 08:22:26;;;;;;;40.23;17.20;;;6.50;99.90;;;;;;5087365;28;20207;-78
2022/01/27 08:24:53;;;;;;;37.43;16.60;;;6.60;99.90;;;;;;5083008;28;20287;-79
2022/01/27 08:27:25;;;;;;;33.30;17.00;;;6.60;99.90;;;;;;5088923;28;20674;-77
2022/01/27 08:30:01;;;;;;;37.87;16.43;;;6.60;99.90;;;;;;5085451;28;20229;-75
2022/01/27 08:32:39;;;;;;;35.63;16.03;;;6.60;99.90;;;;;;5081293;28;20302;-76
2022/01/27 08:35:07;;;;;;;35.53;16.23;;;6.70;99.90;;;;;;5082528;28;20208;-76
2022/01/27 08:37:33;;;;;;;36.30;16.17;;;6.70;99.90;;;;;;5082062;28;21355;-76
2022/01/27 08:40:00;;;;;;;36.27;15.50;;;6.70;99.90;;;;;;5088437;28;20221;-76
2022/01/27 08:42:48;;;;;;;32.90;15.10;;;6.70;99.90;;;;;;5084291;28;20300;-77
2022/01/27 08:45:17;;;;;;;31.23;15.00;;;6.70;99.90;;;;;;5083531;28;20223;-76
2022/01/27 08:47:45;;;;;;;33.30;14.70;;;6.80;99.90;;;;;;5085757;28;20750;-76
2022/01/27 08:50:14;;;;;;;27.73;14.13;;;6.80;99.90;;;;;;5082038;28;20236;-76
2022/01/27 08:52:42;;;;;;;29.13;14.13;;;6.80;99.90;;;;;;5082502;28;20610;-77
2022/01/27 08:55:10;;;;;;;25.80;13.47;;;6.80;99.90;;;;;;5086634;28;20663;-78
2022/01/27 08:57:37;;;;;;;24.63;12.00;;;6.90;99.90;;;;;;5065543;28;20258;-77
2022/01/27 09:00:07;;;;;;;26.03;12.53;;;6.90;99.90;;;;;;5085593;28;20261;-77
2022/01/27 09:02:34;;;;;;;26.13;12.30;;;6.90;99.90;;;;;;5064334;28;20241;-78
2022/01/27 09:05:01;;;;;;;24.27;11.63;;;6.90;99.90;;;;;;5085145;28;20300;-77
2022/01/27 09:07:29;;;;;;;21.03;11.23;;;6.90;99.90;;;;;;5073688;28;20782;-77
2022/01/27 09:09:56;;;;;;;24.10;13.47;;;6.90;99.90;;;;;;5069031;28;20255;-77
2022/01/27 09:12:23;;;;;;;21.77;11.93;;;6.90;99.90;;;;;;5080523;28;20285;-77
2022/01/27 09:14:50;;;;;;;23.87;11.20;;;6.90;99.90;;;;;;5086034;28;20731;-77
2022/01/27 09:17:17;;;;;;;25.77;11.97;;;6.90;99.90;;;;;;5088158;28;20263;-79
2022/01/27 09:19:46;;;;;;;23.90;12.57;;;7.00;99.90;;;;;;5083081;28;20212;-78
2022/01/27 09:22:15;;;;;;;22.97;12.03;;;6.90;99.90;;;;;;5083031;28;20215;-77
2022/01/27 09:24:59;;;;;;;23.57;11.97;;;6.90;99.90;;;;;;5081511;28;20240;-77
2022/01/27 09:27:26;;;;;;;24.53;12.33;;;6.90;99.90;;;;;;5082652;28;20228;-78
2022/01/27 09:29:56;;;;;;;23.67;13.10;;;6.90;99.90;;;;;;5085206;28;20291;-77
2022/01/27 09:32:25;;;;;;;25.77;13.13;;;7.00;99.90;;;;;;5084296;28;20213;-77
2022/01/27 09:34:55;;;;;;;26.13;14.07;;;7.00;99.90;;;;;;5083262;28;20201;-76
2022/01/27 09:37:21;;;;;;;31.37;13.73;;;7.10;99.90;;;;;;5084797;28;20258;-77
2022/01/27 09:39:49;;;;;;;28.07;14.67;;;7.00;99.90;;;;;;5080548;28;20718;-77
2022/01/27 09:42:17;;;;;;;30.10;15.07;;;7.00;99.90;;;;;;5084366;28;20244;-76
2022/01/27 09:44:51;;;;;;;32.00;16.50;;;7.00;99.90;;;;;;5073145;28;20634;-77
2022/01/27 09:47:24;;;;;;;38.50;16.70;;;7.10;99.90;;;;;;5082000;28;20731;-77
2022/01/27 09:50:04;;;;;;;33.53;15.40;;;7.10;99.90;;;;;;5059498;28;20245;-77
2022/01/27 09:52:31;;;;;;;30.30;15.60;;;7.10;99.90;;;;;;5083811;28;20204;-79
2022/01/27 09:54:58;;;;;;;28.80;14.60;;;7.20;99.90;;;;;;5087440;28;20210;-77
2022/01/27 09:57:25;;;;;;;25.67;14.00;;;7.30;99.90;;;;;;5085042;28;20599;-77
2022/01/27 09:59:52;;;;;;;31.20;14.43;;;7.30;99.90;;;;;;5084634;28;20219;-77
2022/01/27 10:02:21;;;;;;;25.37;13.50;;;7.30;99.90;;;;;;5081955;28;20218;-77
2022/01/27 10:04:51;;;;;;;27.10;14.03;;;7.30;99.90;;;;;;5081781;28;20219;-77
2022/01/27 10:07:31;;;;;;;28.37;14.37;;;7.30;99.90;;;;;;5078529;28;20214;-77
2022/01/27 10:10:11;;;;;;;25.23;13.90;;;7.30;99.90;;;;;;5080417;28;20281;-78
2022/01/27 10:12:46;;;;;;;27.90;13.93;;;7.30;99.90;;;;;;5083335;28;20232;-77
2022/01/27 10:15:19;;;;;;;29.50;14.10;;;7.30;99.90;;;;;;5066537;28;20194;-79
2022/01/27 10:18:07;;;;;;;27.73;14.13;;;7.40;99.90;;;;;;5082637;28;20224;-78
2022/01/27 10:20:37;;;;;;;25.37;13.43;;;7.50;99.90;;;;;;5082886;28;20686;-77
2022/01/27 10:23:40;;;;;;;27.27;14.23;;;7.40;99.90;;;;;;5083427;28;20203;-78
2022/01/27 10:26:29;;;;;;;28.80;13.33;;;7.50;99.90;;;;;;5080821;28;20209;-78
2022/01/27 10:29:06;;;;;;;25.23;12.83;;;7.50;99.90;;;;;;5077644;28;20650;-78
2022/01/27 10:31:34;;;;;;;23.20;12.40;;;7.60;99.90;;;;;;5064454;28;20242;-77
2022/01/27 10:34:03;;;;;;;21.50;12.60;;;7.60;99.90;;;;;;5078779;28;20273;-78
2022/01/27 10:36:40;;;;;;;26.10;11.97;;;7.70;99.90;;;;;;5083541;28;20291;-78
2022/01/27 10:39:18;;;;;;;24.73;11.97;;;7.70;99.90;;;;;;5064489;28;20285;-79
2022/01/27 10:42:08;;;;;;;26.60;11.43;;;7.70;99.90;;;;;;5084419;28;20207;-79
2022/01/27 10:44:43;;;;;;;23.27;10.20;;;7.80;99.90;;;;;;5079959;28;20208;-78
2022/01/27 10:47:22;;;;;;;24.50;10.67;;;7.90;99.90;;;;;;5082233;28;20706;-78
2022/01/27 10:50:02;;;;;;;19.40;9.17;;;8.00;99.90;;;;;;5081612;28;20250;-78
2022/01/27 10:52:38;;;;;;;19.30;8.67;;;8.10;99.90;;;;;;5081220;28;20699;-78
2022/01/27 10:55:11;;;;;;;18.03;8.90;;;8.20;99.90;;;;;;5081383;28;20593;-77
2022/01/27 10:57:38;;;;;;;21.30;9.77;;;8.20;99.90;;;;;;5084829;28;20208;-79
2022/01/27 11:00:13;;;;;;;22.70;11.27;;;8.30;99.90;;;;;;5064836;28;20215;-79
2022/01/27 11:03:03;;;;;;;28.13;10.30;;;8.40;99.90;;;;;;5084005;28;20226;-78
2022/01/27 11:05:33;;;;;;;25.77;9.97;;;8.40;99.90;;;;;;5078911;28;20206;-79
2022/01/27 11:08:03;;;;;;;19.90;9.93;;;8.50;99.90;;;;;;5080688;28;20278;-78
2022/01/27 11:10:30;;;;;;;23.93;9.93;;;8.50;99.90;;;;;;5087529;28;20242;-78
2022/01/27 11:12:58;;;;;;;16.73;8.33;;;;;;;;;;5082471;28;20295;-77
2022/01/27 11:15:25;;;;;;;21.70;9.27;;;8.60;99.90;;;;;;5082458;28;20235;-78
2022/01/27 11:17:54;;;;;;;22.23;9.73;;;8.60;99.90;;;;;;5084187;28;20222;-78
2022/01/27 11:20:54;;;;;;;25.40;10.67;;;8.60;99.90;;;;;;5082581;28;20253;-78
2022/01/27 11:26:14;;;;;;;24.90;10.87;;;8.60;99.90;;;;;;5083043;28;20290;-78
2022/01/27 11:28:43;;;;;;;25.13;10.33;;;8.60;99.90;;;;;;5084480;28;20208;-77
2022/01/27 11:31:21;;;;;;;23.47;10.40;;;8.60;99.90;;;;;;5082049;28;20230;-78
2022/01/27 11:34:05;;;;;;;22.77;11.17;;;8.70;99.90;;;;;;5077428;28;20620;-78
2022/01/27 11:36:32;;;;;;;25.53;10.73;;;8.80;99.90;;;;;;5080825;28;20246;-78
2022/01/27 11:39:00;;;;;;;32.33;11.20;;;8.90;99.90;;;;;;5084625;28;20212;-78
2022/01/27 11:41:49;;;;;;;27.97;11.57;;;8.90;99.90;;;;;;5088098;28;20205;-77
2022/01/27 11:44:20;;;;;;;27.70;10.77;;;9.00;99.90;;;;;;5069701;28;20217;-77
2022/01/27 11:47:18;;;;;;;26.67;10.00;;;9.00;99.90;;;;;;5080653;28;20226;-77
2022/01/27 11:50:04;;;;;;;24.83;9.87;;;9.00;99.90;;;;;;5085112;28;20360;-77
2022/01/27 11:52:32;;;;;;;23.97;9.30;;;9.10;99.90;;;;;;5085575;28;20238;-79
2022/01/27 11:55:24;;;;;;;23.07;10.30;;;9.10;99.90;;;;;;5087348;28;20233;-79
2022/01/27 11:57:58;;;;;;;20.10;9.17;;;9.10;99.90;;;;;;5088507;28;20209;-78
2022/01/27 12:00:31;;;;;;;19.97;8.37;;;9.00;99.90;;;;;;5087251;28;20299;-77
2022/01/27 12:03:01;;;;;;;21.17;9.20;;;9.00;99.90;;;;;;5079321;28;20310;-77
2022/01/27 12:05:34;;;;;;;21.57;11.13;;;9.00;99.90;;;;;;5085909;28;20329;-79
2022/01/27 12:08:13;;;;;;;29.27;10.67;;;8.90;99.90;;;;;;5067276;28;20577;-79
2022/01/27 12:10:50;;;;;;;16.40;9.57;;;8.90;99.90;;;;;;5084839;28;20276;-78
2022/01/27 12:13:27;;;;;;;24.17;10.07;;;9.00;99.90;;;;;;5088202;28;20203;-79
2022/01/27 12:19:01;;;;;;;20.83;8.67;;;9.00;99.90;;;;;;5070100;28;20251;-78
2022/01/27 12:21:40;;;;;;;20.10;8.77;;;9.00;99.90;;;;;;5076012;28;20258;-79
2022/01/27 12:24:11;;;;;;;24.00;8.77;;;9.00;99.90;;;;;;5079492;28;20291;-79
2022/01/27 12:26:54;;;;;;;18.73;9.63;;;9.00;99.90;;;;;;5069264;28;20296;-79
2022/01/27 12:29:26;;;;;;;17.67;8.33;;;9.00;99.90;;;;;;5081009;28;20218;-80
2022/01/27 12:31:54;;;;;;;19.33;8.47;;;9.00;99.90;;;;;;5083810;28;20236;-78
2022/01/27 12:34:22;;;;;;;19.40;8.70;;;8.90;99.90;;;;;;5065444;28;20546;-78
2022/01/27 12:36:59;;;;;;;16.77;7.87;;;9.00;99.90;;;;;;5084739;28;20214;-79
2022/01/27 12:39:29;;;;;;;16.57;8.13;;;8.90;99.90;;;;;;5082786;28;20247;-79
2022/01/27 12:41:59;;;;;;;17.27;8.53;;;8.90;99.90;;;;;;5086723;28;20210;-79
2022/01/27 12:44:28;;;;;;;19.23;8.93;;;8.90;99.90;;;;;;5087218;28;20214;-80
2022/01/27 12:47:05;;;;;;;23.70;8.00;;;9.00;99.90;;;;;;5085452;28;20248;-78
2022/01/27 12:49:42;;;;;;;19.67;8.53;;;9.00;99.90;;;;;;5084406;28;20282;-80
2022/01/27 12:52:12;;;;;;;19.37;8.87;;;9.00;99.90;;;;;;5081977;28;20646;-79
2022/01/27 12:54:39;;;;;;;22.37;8.90;;;9.00;99.90;;;;;;5064556;28;20228;-79
2022/01/27 12:57:07;;;;;;;19.20;8.47;;;9.10;99.90;;;;;;5077202;28;20213;-78
2022/01/27 12:59:38;;;;;;;17.67;8.00;;;9.20;99.90;;;;;;5083723;28;20651;-79
2022/01/27 13:02:07;;;;;;;17.63;7.77;;;9.50;99.90;;;;;;5085779;28;20704;-79
2022/01/27 13:04:35;;;;;;;24.70;8.27;;;9.30;99.90;;;;;;5080916;28;20215;-79
2022/01/27 13:07:03;;;;;;;18.30;8.17;;;9.20;99.90;;;;;;5082455;28;20219;-79
2022/01/27 13:09:32;;;;;;;20.73;8.40;;;9.40;99.90;;;;;;5086780;28;20657;-78
2022/01/27 13:12:15;;;;;;;16.60;7.17;;;9.50;99.90;;;;;;5089610;28;20236;-80
2022/01/27 13:14:51;;;;;;;14.33;6.83;;;9.50;99.90;;;;;;5064920;28;20213;-78
2022/01/27 13:17:25;;;;;;;13.47;6.73;;;9.60;99.90;;;;;;5082634;28;20312;-78
2022/01/27 13:19:57;;;;;;;15.30;6.20;;;9.60;99.90;;;;;;5079807;28;20199;-78
2022/01/27 13:22:32;;;;;;;19.57;6.60;;;9.70;99.90;;;;;;5061697;28;20338;-79
2022/01/27 13:25:01;;;;;;;19.57;6.40;;;9.60;99.90;;;;;;5084355;28;20205;-78
2022/01/27 13:27:28;;;;;;;12.87;7.03;;;9.60;99.90;;;;;;5087773;28;20265;-78
2022/01/27 13:29:58;;;;;;;14.13;7.00;;;9.60;99.90;;;;;;5078078;28;20211;-78
2022/01/27 13:32:26;;;;;;;22.80;8.53;;;9.70;99.90;;;;;;5080932;28;20779;-78
2022/01/27 13:34:53;;;;;;;15.33;7.30;;;9.70;99.90;;;;;;5070938;28;20295;-78
2022/01/27 13:37:28;;;;;;;14.30;6.57;;;9.70;99.90;;;;;;5086024;28;20210;-78
2022/01/27 13:42:22;;;;;;;11.37;6.60;;;9.70;99.90;;;;;;5079579;28;20242;-78
2022/01/27 13:45:00;;;;;;;17.17;7.00;;;9.70;99.90;;;;;;5076907;28;20978;-80
2022/01/27 13:47:35;;;;;;;17.13;6.93;;;9.80;99.90;;;;;;5079496;28;20645;-81